Time;durP1;ratioP1;P1;durP2;ratioP2;P2;SDS_P1;SDS_P2;PMS_P1;PMS_P2;Temp;Humidity;BMP_temperature;BMP_pressure;BME280_temperature;BME280_humidity;BME280_pressure;Samples;Min_cycle;Max_cycle;Signal;HPM_P1;HPM_P2
2022/11/17 00:01:26;;;;;;;1.63;1.40;;;11.50;99.90;;;;;;4978678;28;20211;-57
2022/11/17 00:03:55;;;;;;;4.30;1.80;;;11.50;99.90;;;;;;4983907;28;20736;-57
2022/11/17 00:06:23;;;;;;;3.63;1.60;;;11.50;99.90;;;;;;4975063;28;20565;-57
2022/11/17 00:08:53;;;;;;;3.40;1.73;;;11.50;99.90;;;;;;4992718;28;20844;-57
2022/11/17 00:11:23;;;;;;;2.20;1.70;;;11.60;99.90;;;;;;4984281;28;20257;-57
2022/11/17 00:16:37;;;;;;;7.53;1.90;;;11.60;99.90;;;;;;4985345;28;20681;-57
2022/11/17 00:21:52;;;;;;;3.60;1.87;;;11.60;99.90;;;;;;4986613;28;20199;-57
2022/11/17 00:24:22;;;;;;;7.23;2.10;;;11.60;99.90;;;;;;4978307;28;20198;-56
2022/11/17 00:29:37;;;;;;;3.37;1.80;;;11.60;99.90;;;;;;5020573;27;20181;-57
2022/11/17 00:34:52;;;;;;;5.80;1.90;;;11.60;99.90;;;;;;4985091;28;20215;-57
2022/11/17 00:37:20;;;;;;;11.20;2.30;;;11.60;99.90;;;;;;4994556;28;20199;-57
2022/11/17 00:39:48;;;;;;;5.97;1.90;;;11.50;99.90;;;;;;4998501;28;20210;-56
2022/11/17 00:42:18;;;;;;;5.47;2.00;;;11.50;99.90;;;;;;4987233;28;20194;-56
2022/11/17 00:44:47;;;;;;;7.23;2.13;;;11.50;99.90;;;;;;4987346;28;20207;-57
2022/11/17 00:47:15;;;;;;;10.13;2.50;;;11.40;99.90;;;;;;4984130;28;20226;-57
2022/11/17 00:49:44;;;;;;;7.87;2.27;;;11.40;99.90;;;;;;5005274;28;20274;-57
2022/11/17 00:52:13;;;;;;;11.53;2.20;;;11.50;99.90;;;;;;4990534;28;20190;-56
2022/11/17 00:54:41;;;;;;;6.67;1.97;;;11.40;99.90;;;;;;4988891;28;20190;-56
2022/11/17 00:57:10;;;;;;;8.30;1.87;;;11.40;99.90;;;;;;4989704;28;20277;-57
2022/11/17 00:59:39;;;;;;;8.80;2.23;;;11.30;99.90;;;;;;4987054;28;20203;-57
2022/11/17 01:02:07;;;;;;;7.77;2.50;;;11.30;99.90;;;;;;4985294;28;20607;-56
2022/11/17 01:04:36;;;;;;;11.60;2.33;;;11.30;99.90;;;;;;4987089;28;20194;-57
2022/11/17 01:07:04;;;;;;;10.23;2.13;;;11.30;99.90;;;;;;4986474;28;20198;-57
2022/11/17 01:09:32;;;;;;;10.47;2.00;;;11.20;99.90;;;;;;4990448;28;20202;-57
2022/11/17 01:12:01;;;;;;;10.27;1.70;;;11.20;99.90;;;;;;4997197;28;20198;-57
2022/11/17 01:14:31;;;;;;;13.23;2.53;;;11.30;99.90;;;;;;4990805;28;20198;-57
2022/11/17 01:17:01;;;;;;;5.53;2.03;;;11.40;99.90;;;;;;4974500;28;20668;-57
2022/11/17 01:19:29;;;;;;;14.17;2.50;;;11.40;99.90;;;;;;4981464;28;20227;-57
2022/11/17 01:21:57;;;;;;;7.70;2.30;;;11.40;99.90;;;;;;4991191;28;20202;-56
2022/11/17 01:24:26;;;;;;;9.87;2.47;;;11.40;99.90;;;;;;4991573;28;20299;-57
2022/11/17 01:26:55;;;;;;;16.07;2.70;;;11.30;99.90;;;;;;4995695;28;20199;-57
2022/11/17 01:29:23;;;;;;;12.50;2.37;;;11.30;99.90;;;;;;4995794;28;20565;-57
2022/11/17 01:31:52;;;;;;;11.30;2.83;;;11.30;99.90;;;;;;4987708;28;20194;-57
2022/11/17 01:34:22;;;;;;;11.40;2.50;;;11.40;99.90;;;;;;4989391;28;20195;-57
2022/11/17 01:39:36;;;;;;;12.13;2.77;;;11.40;99.90;;;;;;5001292;28;20207;-57
2022/11/17 01:42:11;;;;;;;11.80;2.87;;;11.40;99.90;;;;;;4993897;28;20212;-57
2022/11/17 01:44:58;;;;;;;14.80;3.13;;;11.40;99.90;;;;;;4993674;28;20206;-57
2022/11/17 01:47:37;;;;;;;15.37;3.40;;;11.50;99.90;;;;;;4981711;28;20195;-56
2022/11/17 01:50:14;;;;;;;8.60;2.73;;;11.50;99.90;;;;;;4988434;28;20199;-57
2022/11/17 01:52:42;;;;;;;8.10;2.87;;;11.50;99.90;;;;;;5015591;28;20191;-57
2022/11/17 01:55:12;;;;;;;12.70;2.83;;;11.50;99.90;;;;;;4987304;28;20195;-57
2022/11/17 01:57:45;;;;;;;11.47;2.60;;;11.50;99.90;;;;;;4988616;28;20202;-57
2022/11/17 02:00:15;;;;;;;8.57;2.07;;;11.50;99.90;;;;;;4983272;28;20294;-57
2022/11/17 02:02:46;;;;;;;10.13;2.33;;;11.60;99.90;;;;;;4977088;28;20195;-57
2022/11/17 02:05:30;;;;;;;10.40;2.90;;;11.60;99.90;;;;;;4978074;28;20204;-56
2022/11/17 02:08:01;;;;;;;17.90;3.30;;;11.60;99.90;;;;;;4975733;28;20559;-57
2022/11/17 02:10:34;;;;;;;13.77;2.53;;;11.60;99.90;;;;;;4980267;28;20288;-57
2022/11/17 02:13:02;;;;;;;13.00;2.90;;;11.60;99.90;;;;;;4981399;28;20198;-57
2022/11/17 02:15:31;;;;;;;10.00;2.70;;;11.50;99.90;;;;;;4982474;28;20286;-57
2022/11/17 02:18:01;;;;;;;13.17;2.60;;;11.50;99.90;;;;;;4970838;28;20203;-57
2022/11/17 02:21:06;;;;;;;14.10;3.30;;;11.40;99.90;;;;;;4973062;28;20223;-57
2022/11/17 02:24:00;;;;;;;5.47;2.73;;;11.40;99.90;;;;;;4994729;28;20222;-57
2022/11/17 02:27:04;;;;;;;18.87;3.00;;;11.30;99.90;;;;;;4988751;28;20206;-58
2022/11/17 02:29:37;;;;;;;15.73;3.20;;;11.30;99.90;;;;;;4998720;28;20207;-57
2022/11/17 02:32:09;;;;;;;18.33;2.87;;;11.30;99.90;;;;;;4982917;28;20535;-57
2022/11/17 02:34:45;;;;;;;15.80;2.93;;;11.20;99.90;;;;;;4978676;28;20199;-57
2022/11/17 02:37:21;;;;;;;16.27;3.23;;;11.20;99.90;;;;;;4978093;28;20217;-57
2022/11/17 02:39:59;;;;;;;15.90;2.70;;;11.20;99.90;;;;;;4974261;28;20222;-57
2022/11/17 02:45:26;;;;;;;14.07;3.17;;;11.20;99.90;;;;;;4975751;28;20618;-57
2022/11/17 02:47:57;;;;;;;15.00;3.10;;;11.20;99.90;;;;;;4976657;28;20203;-57
2022/11/17 02:50:28;;;;;;;10.33;3.20;;;11.20;99.90;;;;;;4979158;28;20218;-57
2022/11/17 02:52:57;;;;;;;16.17;2.57;;;11.20;99.90;;;;;;4979108;28;20205;-57
2022/11/17 02:55:26;;;;;;;11.43;2.67;;;11.20;99.90;;;;;;4976452;28;20224;-57
2022/11/17 02:57:54;;;;;;;11.63;2.77;;;11.20;99.90;;;;;;4970465;28;20199;-57
2022/11/17 03:00:26;;;;;;;12.37;3.03;;;11.20;99.90;;;;;;4980950;28;20241;-58
2022/11/17 03:03:23;;;;;;;14.40;2.50;;;11.20;99.90;;;;;;4977857;28;20669;-57
2022/11/17 03:05:59;;;;;;;11.83;2.40;;;11.20;99.90;;;;;;4991528;28;20192;-57
2022/11/17 03:08:36;;;;;;;12.23;2.70;;;11.20;99.90;;;;;;4978410;28;20260;-57
2022/11/17 03:11:07;;;;;;;9.77;3.00;;;11.20;99.90;;;;;;4983850;28;20285;-56
2022/11/17 03:13:47;;;;;;;11.00;2.53;;;11.20;99.90;;;;;;4978492;28;20203;-57
2022/11/17 03:16:28;;;;;;;4.73;2.57;;;11.20;99.90;;;;;;5013850;28;20615;-57
2022/11/17 03:19:06;;;;;;;10.77;2.53;;;11.20;99.90;;;;;;4977562;28;20261;-57
2022/11/17 03:21:40;;;;;;;7.13;2.80;;;11.20;99.90;;;;;;4986849;28;20203;-56
2022/11/17 03:24:14;;;;;;;8.47;2.50;;;11.20;99.90;;;;;;5010481;28;20195;-57
2022/11/17 03:26:46;;;;;;;7.20;2.50;;;11.20;99.90;;;;;;5009179;28;20214;-56
2022/11/17 03:29:19;;;;;;;10.40;2.50;;;11.20;99.90;;;;;;4974058;28;20688;-56
2022/11/17 03:31:55;;;;;;;7.83;2.30;;;11.20;99.90;;;;;;4980398;28;20205;-57
2022/11/17 03:34:27;;;;;;;8.13;2.20;;;11.20;99.90;;;;;;4983416;28;20198;-57
2022/11/17 03:37:01;;;;;;;13.53;2.80;;;11.20;99.90;;;;;;4984312;28;20200;-57
2022/11/17 03:39:32;;;;;;;11.63;2.80;;;11.10;99.90;;;;;;4988475;28;20213;-57
2022/11/17 03:42:06;;;;;;;12.80;2.50;;;11.10;99.90;;;;;;4984778;28;20219;-57
2022/11/17 03:44:38;;;;;;;14.60;2.90;;;11.10;99.90;;;;;;4982527;28;20211;-56
2022/11/17 03:47:12;;;;;;;13.07;2.90;;;11.00;99.90;;;;;;4988454;28;20199;-57
2022/11/17 03:49:45;;;;;;;19.03;2.77;;;11.00;99.90;;;;;;4976028;28;20543;-57
2022/11/17 03:52:13;;;;;;;18.23;2.90;;;11.00;99.90;;;;;;4981578;28;20684;-57
2022/11/17 03:54:42;;;;;;;18.73;2.90;;;11.00;99.90;;;;;;4984967;28;20230;-56
2022/11/17 03:57:15;;;;;;;11.17;2.80;;;10.90;99.90;;;;;;4985584;28;20207;-57
2022/11/17 03:59:52;;;;;;;15.43;2.67;;;10.90;99.90;;;;;;4976224;28;20210;-57
2022/11/17 04:02:23;;;;;;;8.63;2.67;;;10.90;99.90;;;;;;4987686;28;20612;-56
2022/11/17 04:05:07;;;;;;;15.83;3.87;;;10.80;99.90;;;;;;4983137;28;20202;-57
2022/11/17 04:07:38;;;;;;;14.03;2.60;;;10.80;99.90;;;;;;4982353;28;20208;-57
2022/11/17 04:10:10;;;;;;;15.77;2.33;;;10.80;99.90;;;;;;4989069;28;20196;-56
2022/11/17 04:16:05;;;;;;;17.13;2.57;;;10.70;99.90;;;;;;4980366;28;20230;-56
2022/11/17 04:19:14;;;;;;;7.27;2.20;;;10.70;99.90;;;;;;4973522;28;20239;-57
2022/11/17 04:22:23;;;;;;;7.93;2.40;;;10.70;99.90;;;;;;4974648;28;20199;-57
2022/11/17 04:28:59;;;;;;;3.83;1.70;;;10.70;99.90;;;;;;4982564;28;20198;-57
2022/11/17 04:32:07;;;;;;;4.00;1.50;;;10.60;99.90;;;;;;4975802;28;20235;-57
2022/11/17 04:35:17;;;;;;;6.93;1.90;;;10.60;99.90;;;;;;4976971;28;20283;-57
2022/11/17 04:38:25;;;;;;;4.37;1.47;;;10.50;99.90;;;;;;4976725;28;20219;-57
2022/11/17 04:45:01;;;;;;;4.67;1.50;;;10.40;99.90;;;;;;4980154;28;20201;-56
2022/11/17 04:48:09;;;;;;;5.30;1.53;;;10.30;99.90;;;;;;4983983;28;20195;-57
2022/11/17 04:51:18;;;;;;;2.57;1.60;;;10.30;99.90;;;;;;4985487;28;20281;-57
2022/11/17 04:54:27;;;;;;;4.07;1.23;;;10.30;99.90;;;;;;4986967;28;20290;-57
2022/11/17 04:57:35;;;;;;;6.17;1.37;;;10.20;99.90;;;;;;4985558;28;20294;-57
2022/11/17 05:00:44;;;;;;;1.40;1.30;;;10.20;99.90;;;;;;5007572;28;20315;-57
2022/11/17 05:03:54;;;;;;;3.37;1.50;;;10.10;99.90;;;;;;4977987;28;20266;-57
2022/11/17 05:07:04;;;;;;;8.13;1.10;;;10.10;99.90;;;;;;4982085;28;20214;-56
2022/11/17 05:10:13;;;;;;;4.27;1.60;;;10.10;99.90;;;;;;4980628;28;20191;-57
2022/11/17 05:13:21;;;;;;;3.90;1.50;;;10.00;99.90;;;;;;4982823;28;20198;-56
2022/11/17 05:18:54;;;;;;;1.60;1.30;;;10.00;99.90;;;;;;5048825;28;20227;-57
2022/11/17 05:21:22;;;;;;;3.53;1.23;;;10.00;99.90;;;;;;4984730;28;20203;-57
2022/11/17 05:23:54;;;;;;;6.33;1.47;;;10.00;99.90;;;;;;4981113;28;20286;-57
2022/11/17 05:26:26;;;;;;;2.73;1.40;;;9.90;99.90;;;;;;4984635;28;20218;-57
2022/11/17 05:28:56;;;;;;;3.37;1.30;;;9.90;99.90;;;;;;4994092;28;20199;-57
2022/11/17 05:31:24;;;;;;;2.87;1.60;;;9.90;99.90;;;;;;4978844;28;20195;-57
2022/11/17 05:33:53;;;;;;;6.50;1.80;;;9.80;99.90;;;;;;4981882;28;20197;-57
2022/11/17 05:36:23;;;;;;;3.47;1.30;;;9.80;99.90;;;;;;4983174;28;20191;-57
2022/11/17 05:38:53;;;;;;;4.33;1.33;;;9.80;99.90;;;;;;4986453;28;20702;-57
2022/11/17 05:41:22;;;;;;;2.67;1.60;;;9.80;99.90;;;;;;4989225;28;20245;-56
2022/11/17 05:43:52;;;;;;;4.07;1.73;;;9.80;99.90;;;;;;4990849;28;20202;-57
2022/11/17 05:46:21;;;;;;;3.80;1.20;;;9.70;99.90;;;;;;4989620;28;20199;-57
2022/11/17 05:48:50;;;;;;;4.30;1.27;;;9.80;99.90;;;;;;4984597;28;20206;-57
2022/11/17 05:51:20;;;;;;;1.40;1.30;;;9.70;99.90;;;;;;5013889;28;20202;-56
2022/11/17 05:53:49;;;;;;;4.63;1.57;;;9.70;99.90;;;;;;4975754;28;20200;-57
2022/11/17 05:56:39;;;;;;;6.03;1.40;;;9.70;99.90;;;;;;4984879;28;20203;-57
2022/11/17 05:59:17;;;;;;;3.13;1.50;;;9.70;99.90;;;;;;4979092;28;20207;-57
2022/11/17 06:01:56;;;;;;;4.07;1.37;;;9.70;99.90;;;;;;4980278;28;20216;-57
2022/11/17 06:04:25;;;;;;;6.57;1.67;;;9.70;99.90;;;;;;4977111;28;20223;-56
2022/11/17 06:06:57;;;;;;;2.53;1.40;;;9.70;99.90;;;;;;4990066;28;20203;-57
2022/11/17 06:09:26;;;;;;;4.37;1.50;;;9.80;99.90;;;;;;4982062;28;20194;-57
2022/11/17 06:11:56;;;;;;;10.07;2.73;;;9.80;99.90;;;;;;4976302;28;20200;-57
2022/11/17 06:14:32;;;;;;;6.70;2.00;;;9.80;99.90;;;;;;4996647;28;20210;-57
2022/11/17 06:17:03;;;;;;;2.03;1.47;;;9.80;99.90;;;;;;4975455;28;20282;-57
2022/11/17 06:19:36;;;;;;;4.90;1.57;;;9.80;99.90;;;;;;4981898;28;20226;-55
2022/11/17 06:22:05;;;;;;;3.90;1.47;;;9.80;99.90;;;;;;4990614;28;20313;-56
2022/11/17 06:24:42;;;;;;;5.00;1.50;;;9.90;99.90;;;;;;4993100;28;20288;-56
2022/11/17 06:27:15;;;;;;;3.47;1.40;;;9.90;99.90;;;;;;4978532;28;20230;-56
2022/11/17 06:29:45;;;;;;;6.37;1.90;;;10.00;99.90;;;;;;4978065;28;20202;-56
2022/11/17 06:32:15;;;;;;;2.57;1.30;;;9.90;99.90;;;;;;4981229;28;20198;-56
2022/11/17 06:34:46;;;;;;;5.30;1.97;;;9.90;99.90;;;;;;4975411;28;20222;-57
2022/11/17 06:37:22;;;;;;;2.70;1.53;;;10.00;99.90;;;;;;4979202;28;20267;-56
2022/11/17 06:39:52;;;;;;;8.27;1.73;;;10.00;99.90;;;;;;4985349;28;20417;-57
2022/11/17 06:43:02;;;;;;;5.43;1.80;;;10.00;99.90;;;;;;4980095;28;20218;-55
2022/11/17 06:45:11;;;;;;;9.17;1.80;;;10.00;99.90;;;;;;4978220;28;20673;-56
2022/11/17 06:47:40;;;;;;;6.63;1.53;;;10.00;99.90;;;;;;4977739;28;20194;-57
2022/11/17 06:50:09;;;;;;;2.53;1.30;;;10.00;99.90;;;;;;4977936;28;20211;-56
2022/11/17 06:52:37;;;;;;;3.13;1.70;;;10.00;99.90;;;;;;4985145;28;20221;-56
2022/11/17 06:55:07;;;;;;;2.37;1.47;;;10.00;99.90;;;;;;4980139;28;20230;-56
2022/11/17 06:57:37;;;;;;;7.00;1.70;;;9.90;99.90;;;;;;4977578;28;20661;-57
2022/11/17 07:00:06;;;;;;;3.73;1.47;;;9.90;99.90;;;;;;5005074;28;20200;-57
2022/11/17 07:02:36;;;;;;;4.13;1.40;;;9.90;99.90;;;;;;4996899;28;20252;-56
2022/11/17 07:05:04;;;;;;;2.47;1.47;;;9.90;99.90;;;;;;4982548;28;20231;-55
2022/11/17 07:07:33;;;;;;;1.53;1.47;;;9.90;99.90;;;;;;4970824;28;20229;-57
2022/11/17 07:10:02;;;;;;;4.13;1.40;;;9.80;99.90;;;;;;4973536;28;20202;-56
2022/11/17 07:12:31;;;;;;;3.57;1.63;;;9.80;99.90;;;;;;4985963;28;20222;-56
2022/11/17 07:15:01;;;;;;;4.23;1.77;;;9.80;99.90;;;;;;4978291;28;20657;-56
2022/11/17 07:17:31;;;;;;;1.97;1.20;;;9.80;99.90;;;;;;4971635;28;20650;-56
2022/11/17 07:19:59;;;;;;;4.10;1.67;;;9.80;99.90;;;;;;4969757;28;20732;-56
2022/11/17 07:22:28;;;;;;;5.07;1.40;;;9.80;99.90;;;;;;4975639;28;20561;-57
2022/11/17 07:24:56;;;;;;;6.00;1.60;;;9.80;99.90;;;;;;5006039;28;20286;-56
2022/11/17 07:27:25;;;;;;;3.07;1.80;;;9.80;99.90;;;;;;4979911;28;20294;-56
2022/11/17 07:29:53;;;;;;;2.97;1.50;;;9.70;99.90;;;;;;4980652;28;20222;-56
2022/11/17 07:32:25;;;;;;;3.93;1.60;;;9.70;99.90;;;;;;4983189;28;20558;-56
2022/11/17 07:34:54;;;;;;;2.77;1.50;;;9.70;99.90;;;;;;5003618;28;20215;-56
2022/11/17 07:37:22;;;;;;;4.43;1.60;;;9.70;99.90;;;;;;4972005;28;20202;-56
2022/11/17 07:39:50;;;;;;;3.70;1.50;;;9.70;99.90;;;;;;4972068;28;20215;-56
2022/11/17 07:42:19;;;;;;;1.90;1.50;;;9.70;99.90;;;;;;4983017;28;20332;-57
2022/11/17 07:44:51;;;;;;;3.43;1.70;;;9.70;99.90;;;;;;4979855;28;20219;-56
2022/11/17 07:47:20;;;;;;;5.70;1.73;;;9.70;99.90;;;;;;4978791;28;20260;-56
2022/11/17 07:49:51;;;;;;;2.30;1.40;;;9.70;99.90;;;;;;4975731;28;20551;-57
2022/11/17 07:52:19;;;;;;;3.97;1.80;;;9.60;99.90;;;;;;4972552;28;20221;-56
2022/11/17 07:54:47;;;;;;;5.93;2.07;;;9.60;99.90;;;;;;4975351;28;20199;-57
2022/11/17 07:57:16;;;;;;;4.80;2.07;;;9.70;99.90;;;;;;4984610;28;20807;-57
2022/11/17 07:59:46;;;;;;;5.60;1.83;;;9.70;99.90;;;;;;4978584;28;20191;-57
2022/11/17 08:02:14;;;;;;;3.30;1.90;;;9.70;99.90;;;;;;4996518;28;20308;-55
2022/11/17 08:04:42;;;;;;;2.50;1.67;;;9.70;99.90;;;;;;4976615;28;20196;-56
2022/11/17 08:07:12;;;;;;;5.47;1.73;;;9.80;99.90;;;;;;4989102;28;20204;-56
2022/11/17 08:09:40;;;;;;;4.87;1.67;;;9.80;99.90;;;;;;4975897;28;20211;-56
2022/11/17 08:12:09;;;;;;;3.93;1.70;;;9.80;99.90;;;;;;4976171;28;20687;-56
2022/11/17 08:14:37;;;;;;;4.17;1.60;;;9.80;99.90;;;;;;4980792;28;20199;-56
2022/11/17 08:17:05;;;;;;;4.67;1.60;;;9.90;99.90;;;;;;4987209;28;20218;-56
2022/11/17 08:19:34;;;;;;;1.80;1.70;;;9.90;99.90;;;;;;4984377;28;20630;-56
2022/11/17 08:22:02;;;;;;;5.73;1.90;;;10.00;99.90;;;;;;4984490;28;20223;-56
2022/11/17 08:24:32;;;;;;;10.77;2.33;;;10.00;99.90;;;;;;4982183;28;20277;-57
2022/11/17 08:27:01;;;;;;;1.30;1.30;;;10.00;99.90;;;;;;4987488;28;20285;-56
2022/11/17 08:29:31;;;;;;;6.73;1.50;;;10.00;99.90;;;;;;4982516;28;20207;-56
2022/11/17 08:32:02;;;;;;;6.53;1.80;;;10.10;99.90;;;;;;4981238;28;20606;-56
2022/11/17 08:34:32;;;;;;;4.67;1.40;;;10.10;99.90;;;;;;4989536;28;20657;-56
2022/11/17 08:37:00;;;;;;;8.07;1.43;;;10.10;99.90;;;;;;4991545;28;20219;-56
2022/11/17 08:39:32;;;;;;;2.60;1.30;;;10.10;99.90;;;;;;4976950;28;20269;-55
2022/11/17 08:42:01;;;;;;;3.37;1.27;;;10.20;99.90;;;;;;4983134;28;20576;-58
2022/11/17 08:44:30;;;;;;;7.30;1.63;;;10.20;99.90;;;;;;4982255;28;20732;-56
2022/11/17 08:46:58;;;;;;;4.60;1.40;;;10.20;99.90;;;;;;4978224;28;20290;-56
2022/11/17 08:49:26;;;;;;;4.10;1.40;;;10.20;99.90;;;;;;4975892;28;20288;-56
2022/11/17 08:51:55;;;;;;;5.03;1.40;;;10.30;99.90;;;;;;4981625;28;20222;-56
2022/11/17 08:54:23;;;;;;;2.30;1.20;;;10.20;99.90;;;;;;4980736;28;20625;-55
2022/11/17 08:56:57;;;;;;;6.77;1.80;;;10.20;99.90;;;;;;4980345;28;20278;-55
2022/11/17 08:59:25;;;;;;;3.10;1.60;;;10.30;99.90;;;;;;4985612;28;20202;-56
2022/11/17 09:01:54;;;;;;;6.63;1.50;;;10.30;99.90;;;;;;4979851;28;20288;-56
2022/11/17 09:04:22;;;;;;;2.43;1.20;;;10.30;99.90;;;;;;4976832;28;20297;-56
2022/11/17 09:06:50;;;;;;;3.20;1.50;;;10.40;99.90;;;;;;4978440;28;20214;-56
2022/11/17 09:09:19;;;;;;;1.83;1.33;;;10.40;99.90;;;;;;5005870;28;20756;-56
2022/11/17 09:11:47;;;;;;;5.00;1.30;;;10.40;99.90;;;;;;4980959;28;20195;-56
2022/11/17 09:14:17;;;;;;;2.43;1.40;;;10.50;99.90;;;;;;4979248;28;20196;-56
2022/11/17 09:16:45;;;;;;;3.33;1.30;;;10.50;99.90;;;;;;4982971;28;20203;-56
2022/11/17 09:19:13;;;;;;;6.20;1.50;;;10.50;99.90;;;;;;4981179;28;20253;-54
2022/11/17 09:21:42;;;;;;;2.03;1.40;;;10.50;99.90;;;;;;4987015;28;20259;-57
2022/11/17 09:24:10;;;;;;;2.50;1.50;;;10.50;99.90;;;;;;4982114;28;20215;-56
2022/11/17 09:26:39;;;;;;;3.80;1.70;;;10.60;99.90;;;;;;4980033;28;20194;-56
2022/11/17 09:29:08;;;;;;;2.73;1.30;;;10.60;99.90;;;;;;4994556;28;20222;-56
2022/11/17 09:31:38;;;;;;;2.70;1.30;;;10.60;99.90;;;;;;4973167;28;20206;-55
2022/11/17 09:34:07;;;;;;;2.07;1.70;;;10.70;99.90;;;;;;4978123;28;20274;-56
2022/11/17 09:36:35;;;;;;;7.13;1.90;;;10.70;99.90;;;;;;4976349;28;20202;-56
2022/11/17 09:39:07;;;;;;;5.07;1.63;;;10.80;99.90;;;;;;4974794;28;20217;-54
2022/11/17 09:41:41;;;;;;;4.73;1.90;;;10.80;99.90;;;;;;4985481;28;20273;-57
2022/11/17 09:44:25;;;;;;;4.33;1.77;;;10.90;99.90;;;;;;4975539;28;20223;-56
2022/11/17 09:47:13;;;;;;;2.00;1.50;;;10.90;99.90;;;;;;4977002;28;20227;-56
2022/11/17 09:49:50;;;;;;;4.70;1.77;;;10.90;99.90;;;;;;4973724;28;20222;-54
2022/11/17 09:52:31;;;;;;;2.33;1.53;;;11.00;99.90;;;;;;4976172;28;20203;-56
2022/11/17 09:55:04;;;;;;;4.40;1.40;;;11.10;99.90;;;;;;4983018;28;20828;-56
2022/11/17 09:57:38;;;;;;;2.57;1.50;;;11.20;99.90;;;;;;4992799;28;20192;-56
2022/11/17 10:00:14;;;;;;;1.67;1.43;;;11.20;99.90;;;;;;4981290;28;20255;-56
2022/11/17 10:02:44;;;;;;;3.13;1.47;;;11.20;99.90;;;;;;4974731;28;20298;-57
2022/11/17 10:05:15;;;;;;;2.43;1.40;;;11.30;99.90;;;;;;4975539;28;20282;-56
2022/11/17 10:07:49;;;;;;;6.37;1.70;;;11.30;99.90;;;;;;4980715;28;20194;-56
2022/11/17 10:10:21;;;;;;;5.67;1.43;;;11.30;99.90;;;;;;4981973;28;20547;-56
2022/11/17 10:12:55;;;;;;;2.90;1.30;;;11.30;99.90;;;;;;4979007;28;20195;-56
2022/11/17 10:15:28;;;;;;;2.33;1.60;;;11.30;99.90;;;;;;4975753;28;20196;-57
2022/11/17 10:17:58;;;;;;;2.67;1.47;;;11.30;99.90;;;;;;4976650;28;20208;-54
2022/11/17 10:20:26;;;;;;;2.87;1.37;;;11.40;99.90;;;;;;4981068;28;20245;-56
2022/11/17 10:22:55;;;;;;;2.10;1.40;;;11.40;99.90;;;;;;4977085;28;20222;-57
2022/11/17 10:25:37;;;;;;;2.77;1.20;;;11.40;99.90;;;;;;5009520;28;20292;-56
2022/11/17 10:28:07;;;;;;;3.83;1.50;;;11.40;99.90;;;;;;4977628;28;20202;-56
2022/11/17 10:30:36;;;;;;;2.60;1.40;;;11.30;99.90;;;;;;4973892;28;20204;-56
2022/11/17 10:33:05;;;;;;;2.87;1.40;;;11.30;99.90;;;;;;4989861;28;20194;-56
2022/11/17 10:35:35;;;;;;;2.47;1.50;;;11.30;99.90;;;;;;4975696;28;20195;-56
2022/11/17 10:38:13;;;;;;;1.60;1.30;;;11.40;99.90;;;;;;4979349;28;20232;-57
2022/11/17 10:40:47;;;;;;;3.17;1.80;;;11.40;99.90;;;;;;4988505;28;20208;-57
2022/11/17 10:43:24;;;;;;;3.23;1.50;;;11.40;99.90;;;;;;4979204;28;20211;-56
2022/11/17 10:45:54;;;;;;;4.37;1.60;;;11.30;99.90;;;;;;4977730;28;20225;-56
2022/11/17 10:48:30;;;;;;;4.67;1.43;;;11.20;99.90;;;;;;4979463;28;20207;-57
2022/11/17 10:51:00;;;;;;;4.70;1.63;;;11.20;99.90;;;;;;4977211;28;20218;-56
2022/11/17 10:53:33;;;;;;;1.80;1.63;;;11.20;99.90;;;;;;4986851;28;20235;-56
2022/11/17 10:56:15;;;;;;;3.70;1.60;;;11.30;99.90;;;;;;4973442;28;20272;-57
2022/11/17 10:59:02;;;;;;;4.30;1.43;;;11.30;99.90;;;;;;4978460;28;20198;-56
2022/11/17 11:01:33;;;;;;;6.47;2.20;;;11.40;99.90;;;;;;4992390;28;20195;-57
2022/11/17 11:04:06;;;;;;;6.07;1.70;;;11.40;99.90;;;;;;5005160;28;20282;-56
2022/11/17 11:06:35;;;;;;;7.40;1.50;;;11.30;99.90;;;;;;4978346;28;20195;-56
2022/11/17 11:09:10;;;;;;;5.23;1.57;;;11.40;99.90;;;;;;5014529;28;20202;-57
2022/11/17 11:11:43;;;;;;;3.23;1.50;;;11.20;99.90;;;;;;4974261;28;20226;-57
2022/11/17 11:14:32;;;;;;;3.93;1.47;;;11.00;99.90;;;;;;4982849;28;20208;-56
2022/11/17 11:17:08;;;;;;;4.83;1.80;;;10.90;99.90;;;;;;4978951;28;20214;-56
2022/11/17 11:19:39;;;;;;;3.60;1.40;;;11.00;99.90;;;;;;4974992;28;20231;-57
2022/11/17 11:22:27;;;;;;;5.57;1.50;;;11.00;99.90;;;;;;4995386;28;20302;-56
2022/11/17 11:25:05;;;;;;;1.60;1.37;;;11.20;99.90;;;;;;4993105;28;20215;-56
2022/11/17 11:27:54;;;;;;;2.13;1.50;;;11.30;99.90;;;;;;4980818;28;20553;-56
2022/11/17 11:30:23;;;;;;;4.23;1.27;;;11.50;99.90;;;;;;4982990;28;20197;-56
2022/11/17 11:33:03;;;;;;;2.77;1.33;;;11.60;99.90;;;;;;4980274;28;20199;-57
2022/11/17 11:36:03;;;;;;;2.00;1.10;;;11.80;99.90;;;;;;4976149;28;20187;-56
2022/11/17 11:38:47;;;;;;;1.43;1.33;;;11.90;99.90;;;;;;4985677;28;20213;-56
2022/11/17 11:41:28;;;;;;;2.07;1.33;;;12.00;99.90;;;;;;5016914;28;20199;-56
2022/11/17 11:44:13;;;;;;;2.00;1.27;;;12.10;99.90;;;;;;4981000;28;20222;-57
2022/11/17 11:46:51;;;;;;;2.17;1.60;;;12.20;99.90;;;;;;4977209;28;20201;-56
2022/11/17 11:49:29;;;;;;;3.17;1.50;;;12.10;99.90;;;;;;4984233;28;20679;-56
2022/11/17 11:52:01;;;;;;;2.53;1.47;;;12.10;99.90;;;;;;4979547;28;20685;-57
2022/11/17 11:54:35;;;;;;;2.60;1.10;;;12.30;99.90;;;;;;4981709;28;20187;-56
2022/11/17 11:57:12;;;;;;;2.03;1.20;;;12.20;99.90;;;;;;4981291;28;20571;-57
2022/11/17 11:59:48;;;;;;;2.73;1.20;;;12.20;99.90;;;;;;4976117;28;20207;-56
2022/11/17 12:02:26;;;;;;;4.77;1.27;;;12.20;99.90;;;;;;4983020;28;20200;-56
2022/11/17 12:05:07;;;;;;;3.50;1.13;;;12.20;99.90;;;;;;5067220;28;20632;-56
2022/11/17 12:07:46;;;;;;;4.57;1.40;;;12.30;99.90;;;;;;4983282;28;20230;-56
2022/11/17 12:10:20;;;;;;;2.00;1.40;;;12.50;99.90;;;;;;4990958;28;20277;-57
2022/11/17 12:12:49;;;;;;;5.00;1.30;;;12.60;99.90;;;;;;5009577;28;20683;-57
2022/11/17 12:15:35;;;;;;;1.83;1.27;;;12.60;99.90;;;;;;4980849;28;20634;-56
2022/11/17 12:18:11;;;;;;;2.10;1.20;;;12.60;99.90;;;;;;4983202;28;20612;-56
2022/11/17 12:20:55;;;;;;;1.90;1.10;;;12.50;99.90;;;;;;4979539;28;20199;-57
2022/11/17 12:23:56;;;;;;;3.07;1.10;;;12.50;99.90;;;;;;4978093;28;20239;-56
2022/11/17 12:26:29;;;;;;;1.43;1.20;;;12.40;99.90;;;;;;4977830;28;20253;-56
2022/11/17 12:29:29;;;;;;;2.73;1.47;;;12.40;99.90;;;;;;4988297;28;20198;-56
2022/11/17 12:32:00;;;;;;;1.67;1.10;;;12.30;99.90;;;;;;4979376;28;20195;-57
2022/11/17 12:34:31;;;;;;;3.90;1.30;;;12.20;99.90;;;;;;4984278;28;20204;-56
2022/11/17 12:37:25;;;;;;;2.00;1.10;;;12.20;99.90;;;;;;4993225;28;20550;-57
2022/11/17 12:39:58;;;;;;;1.20;1.10;;;12.10;99.90;;;;;;4979275;28;20199;-57
2022/11/17 12:42:29;;;;;;;1.00;1.00;;;12.10;99.90;;;;;;4977999;28;20573;-57
2022/11/17 12:45:02;;;;;;;2.17;1.20;;;12.10;99.90;;;;;;4990286;28;20222;-56
2022/11/17 12:47:32;;;;;;;3.63;1.20;;;12.20;99.90;;;;;;4977323;28;20207;-57
2022/11/17 12:50:52;;;;;;;3.13;1.60;;;12.30;99.90;;;;;;4983388;28;20212;-57
2022/11/17 12:53:45;;;;;;;2.97;1.20;;;12.40;99.90;;;;;;4993170;28;20191;-57
2022/11/17 12:56:45;;;;;;;1.27;1.10;;;12.40;99.90;;;;;;4982631;28;20673;-57
2022/11/17 12:59:55;;;;;;;1.63;1.53;;;12.30;99.90;;;;;;4975688;28;20308;-56
2022/11/17 13:02:51;;;;;;;3.60;1.30;;;12.30;99.90;;;;;;4977202;28;20692;-56
2022/11/17 13:05:22;;;;;;;3.33;1.63;;;12.30;99.90;;;;;;4986556;28;20221;-57
2022/11/17 13:08:10;;;;;;;1.40;1.30;;;12.40;99.90;;;;;;4987056;28;20203;-57
2022/11/17 13:10:39;;;;;;;1.80;1.20;;;12.30;99.90;;;;;;4976338;28;20230;-56
2022/11/17 13:13:17;;;;;;;2.20;1.30;;;12.30;99.90;;;;;;4977119;28;20286;-57
2022/11/17 13:15:50;;;;;;;2.23;1.20;;;12.30;99.90;;;;;;5001766;28;20199;-56
2022/11/17 13:18:32;;;;;;;1.50;1.40;;;12.30;99.90;;;;;;4985310;28;20622;-57
2022/11/17 13:21:01;;;;;;;1.43;1.27;;;12.40;99.90;;;;;;4988854;28;20234;-56
2022/11/17 13:23:31;;;;;;;8.00;1.60;;;12.50;99.90;;;;;;4990146;28;20202;-56
2022/11/17 13:26:11;;;;;;;2.67;1.63;;;12.90;99.90;;;;;;4986948;28;20573;-57
2022/11/17 13:28:40;;;;;;;2.90;1.20;;;13.10;99.90;;;;;;4991700;28;20255;-56
2022/11/17 13:31:16;;;;;;;3.50;1.30;;;13.10;99.90;;;;;;5057693;28;20772;-56
2022/11/17 13:33:59;;;;;;;4.57;1.27;;;13.30;99.90;;;;;;4975991;28;20664;-57
2022/11/17 13:36:27;;;;;;;2.03;1.30;;;13.50;99.90;;;;;;4986643;28;20199;-56
2022/11/17 13:38:59;;;;;;;1.50;1.30;;;13.50;99.90;;;;;;4986970;28;20747;-56
2022/11/17 13:41:29;;;;;;;1.47;1.23;;;13.60;99.90;;;;;;4988983;28;20249;-56
2022/11/17 13:43:58;;;;;;;3.40;1.40;;;13.60;99.90;;;;;;4979295;28;20674;-57
2022/11/17 13:46:26;;;;;;;5.03;1.30;;;13.60;99.90;;;;;;4977071;28;20220;-58
2022/11/17 13:48:56;;;;;;;1.87;1.30;;;13.60;99.90;;;;;;4987175;28;20190;-58
2022/11/17 13:51:29;;;;;;;4.17;1.30;;;13.60;99.90;;;;;;4978609;28;20186;-57
2022/11/17 13:54:00;;;;;;;3.60;1.53;;;13.50;99.90;;;;;;4977875;28;20203;-58
2022/11/17 13:56:36;;;;;;;1.53;1.30;;;13.50;99.90;;;;;;4972619;28;20192;-57
2022/11/17 13:59:16;;;;;;;3.10;1.20;;;13.50;99.90;;;;;;5001794;28;20206;-58